Stolt Auk — 2HLY2 — position and weather

sailwx.info

Track history (hours):
 
Tides and Currents Weather Stations Pressure Air Temp Water Temp Dewpoint Dewpoint Depression Visibility Wind Speed Wind Dir Waves Ship Positions

Stolt Auk

Last reported at 2018-Apr-20 01:00 UTC. Time now 2018-Apr-20 01:11 UTC.
Position N 38°21' W 010°06'.

Length 100 m; draft 6.4 m.

Type: Ship (hazmat cat B). MMSI: 235104739.

Date/timePositionNaut miles runAvg speedWind from/ knotsBaromVisibWave heightAir tempDewpointWater temp
2018-Apr-20 01:00N 38°21' W 010°06'612.6
2018-Apr-20 00:30N 38°27' W 010°08'3212.5
2018-Apr-19 21:55N 38°59' W 010°12'512.9
2018-Apr-19 21:30N 39°04' W 010°12'  
2018-Apr-16 17:22N 49°14' W 004°54'45 8.7
2018-Apr-16 12:14N 49°36' W 003°55'311.1
2018-Apr-16 12:00N 49°37' W 003°51'510.1
2018-Apr-16 11:29N 49°40' W 003°44'611.5
2018-Apr-16 10:57N 49°43' W 003°36'510.4
2018-Apr-16 10:27N 49°46' W 003°29'4 9.8
2018-Apr-16 09:59N 49°48' W 003°23'4 9.3
2018-Apr-16 09:30N 49°50' W 003°17'4 8.6
2018-Apr-16 09:00N 49°52' W 003°11'4 7.8
2018-Apr-16 08:28N 49°54' W 003°06'3 7.4
2018-Apr-16 08:00N 49°56' W 003°01'4 7.1
2018-Apr-16 07:30N 49°58' W 002°56'4 7.1
2018-Apr-16 07:00N 49°59' W 002°51'4 7.2
2018-Apr-16 06:28N 49°60' W 002°45'3 7.5
2018-Apr-16 06:00N 50°01' W 002°40'4 8.3
2018-Apr-16 05:30N 50°02' W 002°33'5 9.4
2018-Apr-16 04:57N 50°03' W 002°26'2512.6
2018-Apr-16 02:58N 50°10' W 001°48'714.9
2018-Apr-16 02:30N 50°12' W 001°38'815.2
2018-Apr-16 02:00N 50°14' W 001°26'3913.6
2018-Apr-15 23:07N 50°24' W 000°27'111.6
2018-Apr-15 23:00N 50°24' W 000°25'510.9
2018-Apr-15 22:30N 50°26' W 000°17'510.2
2018-Apr-15 22:00N 50°27' W 000°10'5 9.8
2018-Apr-15 21:30N 50°28' W 000°02'5 9.7
2018-Apr-15 21:00N 50°30' E 000°05'5 9.5
2018-Apr-15 20:30N 50°31' E 000°13'5 9.7
2018-Apr-15 20:00N 50°32' E 000°20'510.4
2018-Apr-15 19:30N 50°34' E 000°28'611.3
2018-Apr-15 19:00N 50°35' E 000°36'612.1
2018-Apr-15 18:30N 50°39' E 000°44'612.8
2018-Apr-15 18:00N 50°42' E 000°53'713.8
2018-Apr-15 17:31N 50°46' E 001°02'713.9
2018-Apr-15 17:00N 50°50' E 001°11'713.6
2018-Apr-15 16:28N 50°55' E 001°19'613.6
2018-Apr-15 16:00N 50°60' E 001°26'612.6
2018-Apr-15 15:30N 51°04' E 001°33'611.5
2018-Apr-15 15:01N 51°08' E 001°39'611.2
2018-Apr-15 14:30N 51°12' E 001°45'510.5
2018-Apr-15 14:00N 51°17' E 001°49'510.2
2018-Apr-15 13:30N 51°21' E 001°54'510.4
2018-Apr-15 13:00N 51°26' E 001°58'510.3
2018-Apr-15 12:30N 51°30' E 002°03'610.5
2018-Apr-15 11:59N 51°34' E 002°09'611.2
2018-Apr-15 11:29N 51°38' E 002°14'10812.8
2018-Apr-15 03:00N 53°02' E 004°06'611.3
2018-Apr-15 02:30N 53°06' E 004°13'611.7
2018-Apr-15 02:00N 53°10' E 004°21'611.6
2018-Apr-15 01:28N 53°15' E 004°27'912.6
2018-Apr-15 00:47N 53°23' E 004°33'1012.3
2018-Apr-15 00:00N 53°30' E 004°43'813.7
2018-Apr-14 23:27N 53°32' E 004°55'1713.2
2018-Apr-14 22:07N 53°38' E 005°23'412.4
2018-Apr-14 21:48N 53°39' E 005°29'7911.7
2018-Apr-14 15:00N 54°00' E 007°39'1011.2
2018-Apr-14 14:05N 53°53' E 007°51'1 7.3
2018-Apr-14 14:00N 53°52' E 007°52'713.2
2018-Apr-14 13:30N 53°51' E 008°03'714.1
2018-Apr-14 13:00N 53°46' E 008°11'713.7
2018-Apr-14 12:30N 53°42' E 008°21'612.7
2018-Apr-14 12:00N 53°37' E 008°29'5 9.7
2018-Apr-14 11:30N 53°33' E 008°33'3 6.3
2018-Apr-14 11:01N 53°30' E 008°31'0 0.8
2018-Apr-14 10:30N 53°30' E 008°31'0 0.0
2018-Apr-14 10:00N 53°30' E 008°31'0 0.0
2018-Apr-14 09:30N 53°30' E 008°31'0 0.0
2018-Apr-14 09:00N 53°30' E 008°31'0 0.0
2018-Apr-14 08:30N 53°30' E 008°31'0 0.0
2018-Apr-14 08:00N 53°30' E 008°31'0 0.0
2018-Apr-14 07:27N 53°30' E 008°31'0 0.0
2018-Apr-14 07:00N 53°30' E 008°31'0 0.0
2018-Apr-14 06:30N 53°30' E 008°31'0 0.0
2018-Apr-14 06:00N 53°30' E 008°31'0 0.0
2018-Apr-14 05:30N 53°30' E 008°31'0 0.0
2018-Apr-14 05:00N 53°30' E 008°31'0 0.0
2018-Apr-14 04:30N 53°30' E 008°31'0 0.0
2018-Apr-14 03:57N 53°30' E 008°31'0 0.0
2018-Apr-14 03:27N 53°30' E 008°31'0 0.0
2018-Apr-14 02:54N 53°30' E 008°31'0 0.0
2018-Apr-14 02:27N 53°30' E 008°31'0 0.0
2018-Apr-14 02:00N 53°30' E 008°31'0 0.0
2018-Apr-14 01:30N 53°30' E 008°31'0 0.0
2018-Apr-14 00:57N 53°30' E 008°31'0 0.0
2018-Apr-14 00:30N 53°30' E 008°31'0 0.0
2018-Apr-14 00:00N 53°30' E 008°31'0 0.0
2018-Apr-13 23:27N 53°30' E 008°31'0 0.0
2018-Apr-13 23:00N 53°30' E 008°31'0 0.0
2018-Apr-13 22:30N 53°30' E 008°31'0 0.0
2018-Apr-13 22:00N 53°30' E 008°31'0 0.0
2018-Apr-13 21:30N 53°30' E 008°31'0 0.0
2018-Apr-13 21:00N 53°30' E 008°31'0 0.0
2018-Apr-13 20:21N 53°30' E 008°31'0 0.0
2018-Apr-13 20:00N 53°30' E 008°31'0 0.0
2018-Apr-13 19:27N 53°30' E 008°31'0 0.0
2018-Apr-13 19:00N 53°30' E 008°31'0 0.0
2018-Apr-13 18:30N 53°30' E 008°31'0 0.0
2018-Apr-13 18:00N 53°30' E 008°31'0 0.0
2018-Apr-13 17:30N 53°30' E 008°31'0 0.0
2018-Apr-13 16:57N 53°30' E 008°31'0 0.0
2018-Apr-13 16:30N 53°30' E 008°31'0 0.0
2018-Apr-13 16:00N 53°30' E 008°31'0 0.0
2018-Apr-13 15:30N 53°30' E 008°31'0 0.0
2018-Apr-13 15:00N 53°30' E 008°31'1 1.2
2018-Apr-13 14:30N 53°31' E 008°31'11 7.1
2018-Apr-13 13:00N 53°40' E 008°23'4 8.8
2018-Apr-13 12:30N 53°43' E 008°17'9 9.0
2018-Apr-13 11:30N 53°49' E 008°06'5 9.8
2018-Apr-13 10:58N 53°51' E 007°58'610.3
2018-Apr-13 10:26N 53°53' E 007°49'1 1.1
2018-Apr-13 09:17N 53°54' E 007°49'1 0.5
2018-Apr-13 08:11N 53°54' E 007°49'0 0.1
2018-Apr-13 07:56N 53°54' E 007°49'0 0.0
2018-Apr-13 07:20N 53°54' E 007°49'0 0.0
2018-Apr-13 06:59N 53°54' E 007°49'0 0.0
2018-Apr-13 06:20N 53°54' E 007°49'0 0.0
2018-Apr-13 02:53N 53°54' E 007°49'0 0.0
2018-Apr-13 02:29N 53°54' E 007°49'0 0.0
2018-Apr-13 01:53N 53°54' E 007°49'0 0.0
2018-Apr-13 01:29N 53°54' E 007°49'0 0.0
2018-Apr-13 00:53N 53°54' E 007°49'210 6.4
2018-Apr-11 16:06N 51°53' E 003°06'112.6
2018-Apr-11 15:59N 51°51' E 003°07'812.2
2018-Apr-11 15:22N 51°46' E 003°16'511.3
2018-Apr-11 14:58N 51°42' E 003°18'613.2
2018-Apr-11 14:30N 51°36' E 003°23'713.5
2018-Apr-11 14:00N 51°30' E 003°28'613.4
2018-Apr-11 13:31N 51°26' E 003°36'510.1
2018-Apr-11 13:00N 51°24' E 003°43'713.2
2018-Apr-11 12:30N 51°21' E 003°52'713.3
2018-Apr-11 12:00N 51°26' E 003°59'611.4
2018-Apr-11 11:30N 51°22' E 004°06'5 9.4
2018-Apr-11 11:00N 51°23' E 004°13'510.5
2018-Apr-11 10:30N 51°18' E 004°17'2 4.3
2018-Apr-11 10:00N 51°16' E 004°17'0 0.1
2018-Apr-11 09:30N 51°16' E 004°17'1 1.6
2018-Apr-11 08:56N 51°16' E 004°15'0 0.0
2018-Apr-11 08:26N 51°16' E 004°15'0 0.0
2018-Apr-11 07:56N 51°16' E 004°15'0 0.0
2018-Apr-11 07:26N 51°16' E 004°15'0 0.0
2018-Apr-11 06:56N 51°16' E 004°15'0 0.0
2018-Apr-11 06:20N 51°16' E 004°15'0 0.0
2018-Apr-11 05:56N 51°16' E 004°15'0 0.0
2018-Apr-11 05:20N 51°16' E 004°15'0 0.0
2018-Apr-11 04:56N 51°16' E 004°15'0 0.0
2018-Apr-11 04:26N 51°16' E 004°15'0 0.0
2018-Apr-11 03:56N 51°16' E 004°15'0 0.0
2018-Apr-11 03:26N 51°16' E 004°15'0 0.0
2018-Apr-11 02:56N 51°16' E 004°15'0 0.0
2018-Apr-11 02:26N 51°16' E 004°15'0 0.0
2018-Apr-11 01:56N 51°16' E 004°15'0 0.0
2018-Apr-11 01:26N 51°16' E 004°15'0 0.0
2018-Apr-11 00:56N 51°16' E 004°15'0 0.0
2018-Apr-11 00:26N 51°16' E 004°15'0 0.0
2018-Apr-10 23:56N 51°16' E 004°15'0 0.0
2018-Apr-10 23:26N 51°16' E 004°15'0 0.0
2018-Apr-10 22:50N 51°16' E 004°15'0 0.0
2018-Apr-10 22:26N 51°16' E 004°15'0 0.0
2018-Apr-10 21:56N 51°16' E 004°15'0 0.0
2018-Apr-10 21:26N 51°16' E 004°15'0 0.0
2018-Apr-10 20:50N 51°16' E 004°15'0 0.0
2018-Apr-10 20:30N 51°16' E 004°15'1 2.5
2018-Apr-10 20:00N 51°17' E 004°15'0 0.0
2018-Apr-10 19:30N 51°17' E 004°15'0 0.9
2018-Apr-10 19:00N 51°17' E 004°15'2 3.7
2018-Apr-10 18:30N 51°19' E 004°16'611.0
2018-Apr-10 18:00N 51°24' E 004°12'611.9
2018-Apr-10 17:30N 51°23' E 004°03'4 7.6
2018-Apr-10 17:00N 51°25' E 003°58'611.7
2018-Apr-10 16:31N 51°21' E 003°51'611.5
2018-Apr-10 16:01N 51°23' E 003°43'510.8
2018-Apr-10 15:30N 51°26' E 003°35'5 9.9
2018-Apr-10 15:00N 51°29' E 003°29'510.9
2018-Apr-10 14:30N 51°34' E 003°24'511.0
2018-Apr-10 14:00N 51°38' E 003°20'611.4
2018-Apr-10 13:29N 51°44' E 003°15'5 9.3
2018-Apr-10 13:00N 51°48' E 003°16'51 9.7
2018-Apr-10 07:43N 52°31' E 004°02'312.6
2018-Apr-10 07:30N 52°31' E 004°06'612.6
2018-Apr-10 07:00N 52°31' E 004°16'612.8
2018-Apr-10 06:30N 52°29' E 004°27'611.5
2018-Apr-10 06:00N 52°28' E 004°36'1 1.8
2018-Apr-10 05:30N 52°28' E 004°37'4 8.9
2018-Apr-10 05:01N 52°26' E 004°44'3 3.6
2018-Apr-10 04:19N 52°25' E 004°47'0 0.0
2018-Apr-10 03:31N 52°25' E 004°47'0 0.0
2018-Apr-10 03:25N 52°25' E 004°47'0 0.0
2018-Apr-10 02:52N 52°25' E 004°47'0 0.0
2018-Apr-10 02:25N 52°25' E 004°47'0 0.0
2018-Apr-10 01:43N 52°25' E 004°47'0 0.0
2018-Apr-10 01:25N 52°25' E 004°47'  
Track history (hours):
 
Tides and Currents Weather Stations Pressure Air Temp Water Temp Dewpoint Dewpoint Depression Visibility Wind Speed Wind Dir Waves Ship Positions

Stolt Auk

Last reported at 2018-Apr-20 01:00 UTC. Time now 2018-Apr-20 01:11 UTC.
Position N 38°21' W 010°06'.

Length 100 m; draft 6.4 m.

Type: Ship (hazmat cat B). MMSI: 235104739.

Date/timePositionNaut miles runAvg speedWind from/ knotsBaromVisibWave heightAir tempDewpointWater temp
2018-Apr-20 01:00N 38°21' W 010°06'612.6
2018-Apr-20 00:30N 38°27' W 010°08'3212.5
2018-Apr-19 21:55N 38°59' W 010°12'512.9
2018-Apr-19 21:30N 39°04' W 010°12'  
2018-Apr-16 17:22N 49°14' W 004°54'45 8.7
2018-Apr-16 12:14N 49°36' W 003°55'311.1
2018-Apr-16 12:00N 49°37' W 003°51'510.1
2018-Apr-16 11:29N 49°40' W 003°44'611.5
2018-Apr-16 10:57N 49°43' W 003°36'510.4
2018-Apr-16 10:27N 49°46' W 003°29'4 9.8
2018-Apr-16 09:59N 49°48' W 003°23'4 9.3
2018-Apr-16 09:30N 49°50' W 003°17'4 8.6
2018-Apr-16 09:00N 49°52' W 003°11'4 7.8
2018-Apr-16 08:28N 49°54' W 003°06'3 7.4
2018-Apr-16 08:00N 49°56' W 003°01'4 7.1
2018-Apr-16 07:30N 49°58' W 002°56'4 7.1
2018-Apr-16 07:00N 49°59' W 002°51'4 7.2
2018-Apr-16 06:28N 49°60' W 002°45'3 7.5
2018-Apr-16 06:00N 50°01' W 002°40'4 8.3
2018-Apr-16 05:30N 50°02' W 002°33'5 9.4
2018-Apr-16 04:57N 50°03' W 002°26'2512.6
2018-Apr-16 02:58N 50°10' W 001°48'714.9
2018-Apr-16 02:30N 50°12' W 001°38'815.2
2018-Apr-16 02:00N 50°14' W 001°26'3913.6
2018-Apr-15 23:07N 50°24' W 000°27'111.6
2018-Apr-15 23:00N 50°24' W 000°25'510.9
2018-Apr-15 22:30N 50°26' W 000°17'510.2
2018-Apr-15 22:00N 50°27' W 000°10'5 9.8
2018-Apr-15 21:30N 50°28' W 000°02'5 9.7
2018-Apr-15 21:00N 50°30' E 000°05'5 9.5
2018-Apr-15 20:30N 50°31' E 000°13'5 9.7
2018-Apr-15 20:00N 50°32' E 000°20'510.4
2018-Apr-15 19:30N 50°34' E 000°28'611.3
2018-Apr-15 19:00N 50°35' E 000°36'612.1
2018-Apr-15 18:30N 50°39' E 000°44'612.8
2018-Apr-15 18:00N 50°42' E 000°53'713.8
2018-Apr-15 17:31N 50°46' E 001°02'713.9
2018-Apr-15 17:00N 50°50' E 001°11'713.6
2018-Apr-15 16:28N 50°55' E 001°19'613.6
2018-Apr-15 16:00N 50°60' E 001°26'612.6
2018-Apr-15 15:30N 51°04' E 001°33'611.5
2018-Apr-15 15:01N 51°08' E 001°39'611.2
2018-Apr-15 14:30N 51°12' E 001°45'510.5
2018-Apr-15 14:00N 51°17' E 001°49'510.2
2018-Apr-15 13:30N 51°21' E 001°54'510.4
2018-Apr-15 13:00N 51°26' E 001°58'510.3
2018-Apr-15 12:30N 51°30' E 002°03'610.5
2018-Apr-15 11:59N 51°34' E 002°09'611.2
2018-Apr-15 11:29N 51°38' E 002°14'10812.8
2018-Apr-15 03:00N 53°02' E 004°06'611.3
2018-Apr-15 02:30N 53°06' E 004°13'611.7
2018-Apr-15 02:00N 53°10' E 004°21'611.6
2018-Apr-15 01:28N 53°15' E 004°27'912.6
2018-Apr-15 00:47N 53°23' E 004°33'1012.3
2018-Apr-15 00:00N 53°30' E 004°43'813.7
2018-Apr-14 23:27N 53°32' E 004°55'1713.2
2018-Apr-14 22:07N 53°38' E 005°23'412.4
2018-Apr-14 21:48N 53°39' E 005°29'7911.7
2018-Apr-14 15:00N 54°00' E 007°39'1011.2
2018-Apr-14 14:05N 53°53' E 007°51'1 7.3
2018-Apr-14 14:00N 53°52' E 007°52'713.2
2018-Apr-14 13:30N 53°51' E 008°03'714.1
2018-Apr-14 13:00N 53°46' E 008°11'713.7
2018-Apr-14 12:30N 53°42' E 008°21'612.7
2018-Apr-14 12:00N 53°37' E 008°29'5 9.7
2018-Apr-14 11:30N 53°33' E 008°33'3 6.3
2018-Apr-14 11:01N 53°30' E 008°31'0 0.8
2018-Apr-14 10:30N 53°30' E 008°31'0 0.0
2018-Apr-14 10:00N 53°30' E 008°31'0 0.0
2018-Apr-14 09:30N 53°30' E 008°31'0 0.0
2018-Apr-14 09:00N 53°30' E 008°31'0 0.0
2018-Apr-14 08:30N 53°30' E 008°31'0 0.0
2018-Apr-14 08:00N 53°30' E 008°31'0 0.0
2018-Apr-14 07:27N 53°30' E 008°31'0 0.0
2018-Apr-14 07:00N 53°30' E 008°31'0 0.0
2018-Apr-14 06:30N 53°30' E 008°31'0 0.0
2018-Apr-14 06:00N 53°30' E 008°31'0 0.0
2018-Apr-14 05:30N 53°30' E 008°31'0 0.0
2018-Apr-14 05:00N 53°30' E 008°31'0 0.0
2018-Apr-14 04:30N 53°30' E 008°31'0 0.0
2018-Apr-14 03:57N 53°30' E 008°31'0 0.0
2018-Apr-14 03:27N 53°30' E 008°31'0 0.0
2018-Apr-14 02:54N 53°30' E 008°31'0 0.0
2018-Apr-14 02:27N 53°30' E 008°31'0 0.0
2018-Apr-14 02:00N 53°30' E 008°31'0 0.0
2018-Apr-14 01:30N 53°30' E 008°31'0 0.0
2018-Apr-14 00:57N 53°30' E 008°31'0 0.0
2018-Apr-14 00:30N 53°30' E 008°31'0 0.0
2018-Apr-14 00:00N 53°30' E 008°31'0 0.0
2018-Apr-13 23:27N 53°30' E 008°31'0 0.0
2018-Apr-13 23:00N 53°30' E 008°31'0 0.0
2018-Apr-13 22:30N 53°30' E 008°31'0 0.0
2018-Apr-13 22:00N 53°30' E 008°31'0 0.0
2018-Apr-13 21:30N 53°30' E 008°31'0 0.0
2018-Apr-13 21:00N 53°30' E 008°31'0 0.0
2018-Apr-13 20:21N 53°30' E 008°31'0 0.0
2018-Apr-13 20:00N 53°30' E 008°31'0 0.0
2018-Apr-13 19:27N 53°30' E 008°31'0 0.0
2018-Apr-13 19:00N 53°30' E 008°31'0 0.0
2018-Apr-13 18:30N 53°30' E 008°31'0 0.0
2018-Apr-13 18:00N 53°30' E 008°31'0 0.0
2018-Apr-13 17:30N 53°30' E 008°31'0 0.0
2018-Apr-13 16:57N 53°30' E 008°31'0 0.0
2018-Apr-13 16:30N 53°30' E 008°31'0 0.0
2018-Apr-13 16:00N 53°30' E 008°31'0 0.0
2018-Apr-13 15:30N 53°30' E 008°31'0 0.0
2018-Apr-13 15:00N 53°30' E 008°31'1 1.2
2018-Apr-13 14:30N 53°31' E 008°31'11 7.1
2018-Apr-13 13:00N 53°40' E 008°23'4 8.8
2018-Apr-13 12:30N 53°43' E 008°17'9 9.0
2018-Apr-13 11:30N 53°49' E 008°06'5 9.8
2018-Apr-13 10:58N 53°51' E 007°58'610.3
2018-Apr-13 10:26N 53°53' E 007°49'1 1.1
2018-Apr-13 09:17N 53°54' E 007°49'1 0.5
2018-Apr-13 08:11N 53°54' E 007°49'0 0.1
2018-Apr-13 07:56N 53°54' E 007°49'0 0.0
2018-Apr-13 07:20N 53°54' E 007°49'0 0.0
2018-Apr-13 06:59N 53°54' E 007°49'0 0.0
2018-Apr-13 06:20N 53°54' E 007°49'0 0.0
2018-Apr-13 02:53N 53°54' E 007°49'0 0.0
2018-Apr-13 02:29N 53°54' E 007°49'0 0.0
2018-Apr-13 01:53N 53°54' E 007°49'0 0.0
2018-Apr-13 01:29N 53°54' E 007°49'0 0.0
2018-Apr-13 00:53N 53°54' E 007°49'210 6.4
2018-Apr-11 16:06N 51°53' E 003°06'112.6
2018-Apr-11 15:59N 51°51' E 003°07'812.2
2018-Apr-11 15:22N 51°46' E 003°16'511.3
2018-Apr-11 14:58N 51°42' E 003°18'613.2
2018-Apr-11 14:30N 51°36' E 003°23'713.5
2018-Apr-11 14:00N 51°30' E 003°28'613.4
2018-Apr-11 13:31N 51°26' E 003°36'510.1
2018-Apr-11 13:00N 51°24' E 003°43'713.2
2018-Apr-11 12:30N 51°21' E 003°52'713.3
2018-Apr-11 12:00N 51°26' E 003°59'611.4
2018-Apr-11 11:30N 51°22' E 004°06'5 9.4
2018-Apr-11 11:00N 51°23' E 004°13'510.5
2018-Apr-11 10:30N 51°18' E 004°17'2 4.3
2018-Apr-11 10:00N 51°16' E 004°17'0 0.1
2018-Apr-11 09:30N 51°16' E 004°17'1 1.6
2018-Apr-11 08:56N 51°16' E 004°15'0 0.0
2018-Apr-11 08:26N 51°16' E 004°15'0 0.0
2018-Apr-11 07:56N 51°16' E 004°15'0 0.0
2018-Apr-11 07:26N 51°16' E 004°15'0 0.0
2018-Apr-11 06:56N 51°16' E 004°15'0 0.0
2018-Apr-11 06:20N 51°16' E 004°15'0 0.0
2018-Apr-11 05:56N 51°16' E 004°15'0 0.0
2018-Apr-11 05:20N 51°16' E 004°15'0 0.0
2018-Apr-11 04:56N 51°16' E 004°15'0 0.0
2018-Apr-11 04:26N 51°16' E 004°15'0 0.0
2018-Apr-11 03:56N 51°16' E 004°15'0 0.0
2018-Apr-11 03:26N 51°16' E 004°15'0 0.0
2018-Apr-11 02:56N 51°16' E 004°15'0 0.0
2018-Apr-11 02:26N 51°16' E 004°15'0 0.0
2018-Apr-11 01:56N 51°16' E 004°15'0 0.0
2018-Apr-11 01:26N 51°16' E 004°15'0 0.0
2018-Apr-11 00:56N 51°16' E 004°15'0 0.0
2018-Apr-11 00:26N 51°16' E 004°15'0 0.0
2018-Apr-10 23:56N 51°16' E 004°15'0 0.0
2018-Apr-10 23:26N 51°16' E 004°15'0 0.0
2018-Apr-10 22:50N 51°16' E 004°15'0 0.0
2018-Apr-10 22:26N 51°16' E 004°15'0 0.0
2018-Apr-10 21:56N 51°16' E 004°15'0 0.0
2018-Apr-10 21:26N 51°16' E 004°15'0 0.0
2018-Apr-10 20:50N 51°16' E 004°15'0 0.0
2018-Apr-10 20:30N 51°16' E 004°15'1 2.5
2018-Apr-10 20:00N 51°17' E 004°15'0 0.0
2018-Apr-10 19:30N 51°17' E 004°15'0 0.9
2018-Apr-10 19:00N 51°17' E 004°15'2 3.7
2018-Apr-10 18:30N 51°19' E 004°16'611.0
2018-Apr-10 18:00N 51°24' E 004°12'611.9
2018-Apr-10 17:30N 51°23' E 004°03'4 7.6
2018-Apr-10 17:00N 51°25' E 003°58'611.7
2018-Apr-10 16:31N 51°21' E 003°51'611.5
2018-Apr-10 16:01N 51°23' E 003°43'510.8
2018-Apr-10 15:30N 51°26' E 003°35'5 9.9
2018-Apr-10 15:00N 51°29' E 003°29'510.9
2018-Apr-10 14:30N 51°34' E 003°24'511.0
2018-Apr-10 14:00N 51°38' E 003°20'611.4
2018-Apr-10 13:29N 51°44' E 003°15'5 9.3
2018-Apr-10 13:00N 51°48' E 003°16'51 9.7
2018-Apr-10 07:43N 52°31' E 004°02'312.6
2018-Apr-10 07:30N 52°31' E 004°06'612.6
2018-Apr-10 07:00N 52°31' E 004°16'612.8
2018-Apr-10 06:30N 52°29' E 004°27'611.5
2018-Apr-10 06:00N 52°28' E 004°36'1 1.8
2018-Apr-10 05:30N 52°28' E 004°37'4 8.9
2018-Apr-10 05:01N 52°26' E 004°44'3 3.6
2018-Apr-10 04:19N 52°25' E 004°47'0 0.0
2018-Apr-10 03:31N 52°25' E 004°47'0 0.0
2018-Apr-10 03:25N 52°25' E 004°47'0 0.0
2018-Apr-10 02:52N 52°25' E 004°47'0 0.0
2018-Apr-10 02:25N 52°25' E 004°47'0 0.0
2018-Apr-10 01:43N 52°25' E 004°47'0 0.0
2018-Apr-10 01:25N 52°25' E 004°47'  

Dump ship's entire track history